sensor_id;sensor_type;location;lat;lon;timestamp;temperature;humidity
46720;DHT22;32452;51.382;-0.002;2023-08-24T00:02:39;21.00;82.00
46720;DHT22;32452;51.382;-0.002;2023-08-24T00:05:28;21.00;82.30
46720;DHT22;32452;51.382;-0.002;2023-08-24T00:08:14;20.90;82.50
46720;DHT22;32452;51.382;-0.002;2023-08-24T00:11:00;20.90;82.90
46720;DHT22;32452;51.382;-0.002;2023-08-24T00:13:47;20.80;83.30
46720;DHT22;32452;51.382;-0.002;2023-08-24T00:16:37;20.80;83.60
46720;DHT22;32452;51.382;-0.002;2023-08-24T00:19:22;20.70;83.90
46720;DHT22;32452;51.382;-0.002;2023-08-24T00:22:08;20.70;84.20
46720;DHT22;32452;51.382;-0.002;2023-08-24T00:25:07;20.60;84.60
46720;DHT22;32452;51.382;-0.002;2023-08-24T00:28:01;20.50;84.90
46720;DHT22;32452;51.382;-0.002;2023-08-24T00:30:46;20.50;85.10
46720;DHT22;32452;51.382;-0.002;2023-08-24T00:33:34;20.40;85.40
46720;DHT22;32452;51.382;-0.002;2023-08-24T00:36:23;20.40;85.70
46720;DHT22;32452;51.382;-0.002;2023-08-24T00:39:11;20.30;85.90
46720;DHT22;32452;51.382;-0.002;2023-08-24T00:41:57;20.30;86.10
46720;DHT22;32452;51.382;-0.002;2023-08-24T00:44:46;20.20;86.20
46720;DHT22;32452;51.382;-0.002;2023-08-24T00:47:34;20.20;86.50
46720;DHT22;32452;51.382;-0.002;2023-08-24T00:50:20;20.10;86.60
46720;DHT22;32452;51.382;-0.002;2023-08-24T00:53:09;20.10;86.90
46720;DHT22;32452;51.382;-0.002;2023-08-24T00:55:58;20.00;87.20
46720;DHT22;32452;51.382;-0.002;2023-08-24T00:58:46;20.00;87.40
46720;DHT22;32452;51.382;-0.002;2023-08-24T01:01:33;19.90;87.70
46720;DHT22;32452;51.382;-0.002;2023-08-24T01:04:23;19.90;88.00
46720;DHT22;32452;51.382;-0.002;2023-08-24T01:07:10;19.80;88.10
46720;DHT22;32452;51.382;-0.002;2023-08-24T01:09:55;19.80;88.40
46720;DHT22;32452;51.382;-0.002;2023-08-24T01:13:01;19.80;88.60
46720;DHT22;32452;51.382;-0.002;2023-08-24T01:15:55;19.70;88.70
46720;DHT22;32452;51.382;-0.002;2023-08-24T01:18:43;19.70;89.10
46720;DHT22;32452;51.382;-0.002;2023-08-24T01:21:30;19.60;89.30
46720;DHT22;32452;51.382;-0.002;2023-08-24T01:24:40;19.50;89.50
46720;DHT22;32452;51.382;-0.002;2023-08-24T01:27:29;19.50;89.70
46720;DHT22;32452;51.382;-0.002;2023-08-24T01:30:17;19.50;90.00
46720;DHT22;32452;51.382;-0.002;2023-08-24T01:33:05;19.40;90.10
46720;DHT22;32452;51.382;-0.002;2023-08-24T01:35:51;19.40;90.10
46720;DHT22;32452;51.382;-0.002;2023-08-24T01:38:37;19.30;90.20
46720;DHT22;32452;51.382;-0.002;2023-08-24T01:41:28;19.30;90.30
46720;DHT22;32452;51.382;-0.002;2023-08-24T01:44:26;19.20;90.50
46720;DHT22;32452;51.382;-0.002;2023-08-24T01:47:17;19.20;90.50
46720;DHT22;32452;51.382;-0.002;2023-08-24T01:50:06;19.10;90.70
46720;DHT22;32452;51.382;-0.002;2023-08-24T01:52:52;19.00;90.70
46720;DHT22;32452;51.382;-0.002;2023-08-24T01:55:40;19.00;90.80
46720;DHT22;32452;51.382;-0.002;2023-08-24T01:58:27;18.90;90.90
46720;DHT22;32452;51.382;-0.002;2023-08-24T02:01:12;18.90;91.00
46720;DHT22;32452;51.382;-0.002;2023-08-24T02:03:58;18.80;91.10
46720;DHT22;32452;51.382;-0.002;2023-08-24T02:06:46;18.80;91.10
46720;DHT22;32452;51.382;-0.002;2023-08-24T02:09:31;18.80;91.20
46720;DHT22;32452;51.382;-0.002;2023-08-24T02:12:17;18.70;91.30
46720;DHT22;32452;51.382;-0.002;2023-08-24T02:15:03;18.70;91.40
46720;DHT22;32452;51.382;-0.002;2023-08-24T02:17:49;18.70;91.50
46720;DHT22;32452;51.382;-0.002;2023-08-24T02:20:38;18.70;91.60
46720;DHT22;32452;51.382;-0.002;2023-08-24T02:23:23;18.70;91.70
46720;DHT22;32452;51.382;-0.002;2023-08-24T02:26:09;18.70;91.80
46720;DHT22;32452;51.382;-0.002;2023-08-24T02:28:57;18.70;91.90
46720;DHT22;32452;51.382;-0.002;2023-08-24T02:31:43;18.70;92.00
46720;DHT22;32452;51.382;-0.002;2023-08-24T02:34:31;18.60;92.10
46720;DHT22;32452;51.382;-0.002;2023-08-24T02:37:17;18.60;92.10
46720;DHT22;32452;51.382;-0.002;2023-08-24T02:40:11;18.70;92.20
46720;DHT22;32452;51.382;-0.002;2023-08-24T02:42:57;18.70;92.20
46720;DHT22;32452;51.382;-0.002;2023-08-24T02:45:42;18.80;92.30
46720;DHT22;32452;51.382;-0.002;2023-08-24T02:48:28;18.80;92.30
46720;DHT22;32452;51.382;-0.002;2023-08-24T02:51:13;18.80;92.30
46720;DHT22;32452;51.382;-0.002;2023-08-24T02:53:59;18.70;92.30
46720;DHT22;32452;51.382;-0.002;2023-08-24T02:56:45;18.80;92.30
46720;DHT22;32452;51.382;-0.002;2023-08-24T02:59:30;18.80;92.40
46720;DHT22;32452;51.382;-0.002;2023-08-24T03:02:16;18.70;92.40
46720;DHT22;32452;51.382;-0.002;2023-08-24T03:05:02;18.80;92.50
46720;DHT22;32452;51.382;-0.002;2023-08-24T03:07:47;18.80;92.50
46720;DHT22;32452;51.382;-0.002;2023-08-24T03:10:37;18.80;92.60
46720;DHT22;32452;51.382;-0.002;2023-08-24T03:13:22;18.80;92.70
46720;DHT22;32452;51.382;-0.002;2023-08-24T03:16:09;18.70;92.70
46720;DHT22;32452;51.382;-0.002;2023-08-24T03:18:54;18.80;92.70
46720;DHT22;32452;51.382;-0.002;2023-08-24T03:21:39;18.80;92.80
46720;DHT22;32452;51.382;-0.002;2023-08-24T03:24:25;18.90;92.80
46720;DHT22;32452;51.382;-0.002;2023-08-24T03:27:10;18.90;92.80
46720;DHT22;32452;51.382;-0.002;2023-08-24T03:29:56;19.00;92.90
46720;DHT22;32452;51.382;-0.002;2023-08-24T03:32:41;19.10;92.80
46720;DHT22;32452;51.382;-0.002;2023-08-24T03:35:28;19.10;92.80
46720;DHT22;32452;51.382;-0.002;2023-08-24T03:38:14;19.10;92.80
46720;DHT22;32452;51.382;-0.002;2023-08-24T03:41:00;19.20;92.80
46720;DHT22;32452;51.382;-0.002;2023-08-24T03:43:46;19.20;92.80
46720;DHT22;32452;51.382;-0.002;2023-08-24T03:46:32;19.20;92.80
46720;DHT22;32452;51.382;-0.002;2023-08-24T03:49:17;19.20;92.80
46720;DHT22;32452;51.382;-0.002;2023-08-24T03:52:03;19.10;92.70
46720;DHT22;32452;51.382;-0.002;2023-08-24T03:54:48;19.10;92.70
46720;DHT22;32452;51.382;-0.002;2023-08-24T03:57:34;19.00;92.70
46720;DHT22;32452;51.382;-0.002;2023-08-24T04:00:19;19.00;92.80
46720;DHT22;32452;51.382;-0.002;2023-08-24T04:03:05;19.00;92.70
46720;DHT22;32452;51.382;-0.002;2023-08-24T04:05:51;19.00;92.80
46720;DHT22;32452;51.382;-0.002;2023-08-24T04:08:37;18.90;92.90
46720;DHT22;32452;51.382;-0.002;2023-08-24T04:11:22;19.00;93.00
46720;DHT22;32452;51.382;-0.002;2023-08-24T04:14:08;19.00;93.00
46720;DHT22;32452;51.382;-0.002;2023-08-24T04:16:53;19.00;93.10
46720;DHT22;32452;51.382;-0.002;2023-08-24T04:19:39;19.00;93.40
46720;DHT22;32452;51.382;-0.002;2023-08-24T04:22:25;19.00;93.00
46720;DHT22;32452;51.382;-0.002;2023-08-24T04:25:10;19.00;93.40
46720;DHT22;32452;51.382;-0.002;2023-08-24T04:27:56;19.00;93.10
46720;DHT22;32452;51.382;-0.002;2023-08-24T04:30:51;19.00;93.20
46720;DHT22;32452;51.382;-0.002;2023-08-24T04:33:40;19.00;93.30
46720;DHT22;32452;51.382;-0.002;2023-08-24T04:36:25;19.00;93.30
46720;DHT22;32452;51.382;-0.002;2023-08-24T04:39:12;19.00;93.40
46720;DHT22;32452;51.382;-0.002;2023-08-24T04:42:06;19.00;93.50
46720;DHT22;32452;51.382;-0.002;2023-08-24T04:44:52;19.10;93.50
46720;DHT22;32452;51.382;-0.002;2023-08-24T04:47:38;19.10;93.60
46720;DHT22;32452;51.382;-0.002;2023-08-24T04:50:44;19.10;93.60
46720;DHT22;32452;51.382;-0.002;2023-08-24T04:53:32;19.10;93.60
46720;DHT22;32452;51.382;-0.002;2023-08-24T04:56:19;19.20;93.70
46720;DHT22;32452;51.382;-0.002;2023-08-24T04:59:12;19.20;94.20
46720;DHT22;32452;51.382;-0.002;2023-08-24T05:01:58;19.20;93.90
46720;DHT22;32452;51.382;-0.002;2023-08-24T05:04:54;19.20;94.00
46720;DHT22;32452;51.382;-0.002;2023-08-24T05:07:56;19.20;94.00
46720;DHT22;32452;51.382;-0.002;2023-08-24T05:10:41;19.20;94.10
46720;DHT22;32452;51.382;-0.002;2023-08-24T05:13:32;19.10;94.20
46720;DHT22;32452;51.382;-0.002;2023-08-24T05:16:39;19.20;94.30
46720;DHT22;32452;51.382;-0.002;2023-08-24T05:19:36;19.10;94.40
46720;DHT22;32452;51.382;-0.002;2023-08-24T05:22:31;19.10;94.60
46720;DHT22;32452;51.382;-0.002;2023-08-24T05:25:34;19.10;95.00
46720;DHT22;32452;51.382;-0.002;2023-08-24T05:28:20;19.10;95.20
46720;DHT22;32452;51.382;-0.002;2023-08-24T05:31:06;19.10;95.40
46720;DHT22;32452;51.382;-0.002;2023-08-24T05:33:51;19.10;95.60
46720;DHT22;32452;51.382;-0.002;2023-08-24T05:36:38;19.10;95.90
46720;DHT22;32452;51.382;-0.002;2023-08-24T05:39:24;19.10;96.10
46720;DHT22;32452;51.382;-0.002;2023-08-24T05:42:12;19.10;96.40
46720;DHT22;32452;51.382;-0.002;2023-08-24T05:45:30;19.10;96.60
46720;DHT22;32452;51.382;-0.002;2023-08-24T05:48:15;19.10;96.80
46720;DHT22;32452;51.382;-0.002;2023-08-24T05:51:02;19.10;97.10
46720;DHT22;32452;51.382;-0.002;2023-08-24T05:53:55;19.10;97.40
46720;DHT22;32452;51.382;-0.002;2023-08-24T05:56:47;19.10;97.50
46720;DHT22;32452;51.382;-0.002;2023-08-24T05:59:34;19.00;97.60
46720;DHT22;32452;51.382;-0.002;2023-08-24T06:02:28;19.00;97.90
46720;DHT22;32452;51.382;-0.002;2023-08-24T06:05:19;19.10;98.00
46720;DHT22;32452;51.382;-0.002;2023-08-24T06:08:05;19.00;98.20
46720;DHT22;32452;51.382;-0.002;2023-08-24T06:10:52;19.00;98.30
46720;DHT22;32452;51.382;-0.002;2023-08-24T06:13:40;19.00;98.50
46720;DHT22;32452;51.382;-0.002;2023-08-24T06:16:30;18.90;98.60
46720;DHT22;32452;51.382;-0.002;2023-08-24T06:19:20;18.90;98.70
46720;DHT22;32452;51.382;-0.002;2023-08-24T06:22:06;18.90;98.80
46720;DHT22;32452;51.382;-0.002;2023-08-24T06:24:53;18.80;99.00
46720;DHT22;32452;51.382;-0.002;2023-08-24T06:27:43;18.80;99.10
46720;DHT22;32452;51.382;-0.002;2023-08-24T06:30:37;18.80;99.20
46720;DHT22;32452;51.382;-0.002;2023-08-24T06:33:28;18.80;99.40
46720;DHT22;32452;51.382;-0.002;2023-08-24T06:36:16;18.80;99.70
46720;DHT22;32452;51.382;-0.002;2023-08-24T06:39:03;18.90;99.70
46720;DHT22;32452;51.382;-0.002;2023-08-24T06:41:49;18.80;99.70
46720;DHT22;32452;51.382;-0.002;2023-08-24T06:44:36;18.90;99.80
46720;DHT22;32452;51.382;-0.002;2023-08-24T06:47:22;18.80;99.80
46720;DHT22;32452;51.382;-0.002;2023-08-24T06:50:08;18.80;99.90
46720;DHT22;32452;51.382;-0.002;2023-08-24T06:52:54;18.80;99.90
46720;DHT22;32452;51.382;-0.002;2023-08-24T06:55:39;18.70;99.80
46720;DHT22;32452;51.382;-0.002;2023-08-24T06:58:25;18.70;99.90
46720;DHT22;32452;51.382;-0.002;2023-08-24T07:01:11;18.70;99.90
46720;DHT22;32452;51.382;-0.002;2023-08-24T07:03:57;18.70;99.90
46720;DHT22;32452;51.382;-0.002;2023-08-24T07:06:42;18.70;99.90
46720;DHT22;32452;51.382;-0.002;2023-08-24T07:09:29;18.70;99.90
46720;DHT22;32452;51.382;-0.002;2023-08-24T07:12:14;18.80;99.90
46720;DHT22;32452;51.382;-0.002;2023-08-24T07:15:00;18.80;99.90
46720;DHT22;32452;51.382;-0.002;2023-08-24T07:17:46;18.90;99.90
46720;DHT22;32452;51.382;-0.002;2023-08-24T07:20:35;18.90;99.90
46720;DHT22;32452;51.382;-0.002;2023-08-24T07:23:22;19.00;99.90
46720;DHT22;32452;51.382;-0.002;2023-08-24T07:26:07;19.00;99.90
46720;DHT22;32452;51.382;-0.002;2023-08-24T07:28:54;19.00;99.90
46720;DHT22;32452;51.382;-0.002;2023-08-24T07:31:40;19.10;99.90
46720;DHT22;32452;51.382;-0.002;2023-08-24T07:34:25;19.20;99.90
46720;DHT22;32452;51.382;-0.002;2023-08-24T07:37:12;19.20;99.90
46720;DHT22;32452;51.382;-0.002;2023-08-24T07:39:58;19.30;99.90
46720;DHT22;32452;51.382;-0.002;2023-08-24T07:42:48;19.40;99.90
46720;DHT22;32452;51.382;-0.002;2023-08-24T07:45:36;19.50;99.90
46720;DHT22;32452;51.382;-0.002;2023-08-24T07:48:22;19.50;99.90
46720;DHT22;32452;51.382;-0.002;2023-08-24T07:51:08;19.50;99.90
46720;DHT22;32452;51.382;-0.002;2023-08-24T07:53:54;19.50;99.90
46720;DHT22;32452;51.382;-0.002;2023-08-24T07:56:39;19.50;99.90
46720;DHT22;32452;51.382;-0.002;2023-08-24T07:59:25;19.50;99.90
46720;DHT22;32452;51.382;-0.002;2023-08-24T08:02:11;19.50;99.90
46720;DHT22;32452;51.382;-0.002;2023-08-24T08:04:58;19.60;99.90
46720;DHT22;32452;51.382;-0.002;2023-08-24T08:07:44;19.60;99.90
46720;DHT22;32452;51.382;-0.002;2023-08-24T08:10:30;19.60;99.90
46720;DHT22;32452;51.382;-0.002;2023-08-24T08:13:15;19.70;99.90
46720;DHT22;32452;51.382;-0.002;2023-08-24T08:16:06;19.70;99.90
46720;DHT22;32452;51.382;-0.002;2023-08-24T08:18:52;19.70;99.90
46720;DHT22;32452;51.382;-0.002;2023-08-24T08:21:38;19.80;99.90
46720;DHT22;32452;51.382;-0.002;2023-08-24T08:24:23;19.80;99.90
46720;DHT22;32452;51.382;-0.002;2023-08-24T08:27:11;19.90;99.90
46720;DHT22;32452;51.382;-0.002;2023-08-24T08:29:57;19.90;99.90
46720;DHT22;32452;51.382;-0.002;2023-08-24T08:32:42;20.00;99.90
46720;DHT22;32452;51.382;-0.002;2023-08-24T08:35:28;20.10;99.90
46720;DHT22;32452;51.382;-0.002;2023-08-24T08:38:15;20.30;99.90
46720;DHT22;32452;51.382;-0.002;2023-08-24T08:41:04;20.30;99.90
46720;DHT22;32452;51.382;-0.002;2023-08-24T08:43:50;20.40;99.90
46720;DHT22;32452;51.382;-0.002;2023-08-24T08:46:35;20.40;99.90
46720;DHT22;32452;51.382;-0.002;2023-08-24T08:49:21;20.40;99.90
46720;DHT22;32452;51.382;-0.002;2023-08-24T08:52:07;20.50;99.90
46720;DHT22;32452;51.382;-0.002;2023-08-24T08:54:52;20.60;99.90
46720;DHT22;32452;51.382;-0.002;2023-08-24T08:57:38;20.70;99.90
46720;DHT22;32452;51.382;-0.002;2023-08-24T09:00:27;20.90;99.90
46720;DHT22;32452;51.382;-0.002;2023-08-24T09:03:17;21.20;99.90
46720;DHT22;32452;51.382;-0.002;2023-08-24T09:06:03;21.40;99.90
46720;DHT22;32452;51.382;-0.002;2023-08-24T09:08:49;21.50;99.90
46720;DHT22;32452;51.382;-0.002;2023-08-24T09:11:35;21.50;99.90
46720;DHT22;32452;51.382;-0.002;2023-08-24T09:14:22;21.40;99.90
46720;DHT22;32452;51.382;-0.002;2023-08-24T09:17:07;21.30;99.90
46720;DHT22;32452;51.382;-0.002;2023-08-24T09:19:58;21.30;99.90
46720;DHT22;32452;51.382;-0.002;2023-08-24T09:22:44;21.20;99.90
46720;DHT22;32452;51.382;-0.002;2023-08-24T09:25:30;21.10;99.90
46720;DHT22;32452;51.382;-0.002;2023-08-24T09:28:22;21.00;99.90
46720;DHT22;32452;51.382;-0.002;2023-08-24T09:31:08;21.00;99.90
46720;DHT22;32452;51.382;-0.002;2023-08-24T09:34:00;20.90;99.90
46720;DHT22;32452;51.382;-0.002;2023-08-24T09:36:46;20.90;99.90
46720;DHT22;32452;51.382;-0.002;2023-08-24T09:39:32;20.90;99.90
46720;DHT22;32452;51.382;-0.002;2023-08-24T09:42:24;20.80;99.90
46720;DHT22;32452;51.382;-0.002;2023-08-24T09:45:14;20.80;99.90
46720;DHT22;32452;51.382;-0.002;2023-08-24T09:48:00;21.00;99.90
46720;DHT22;32452;51.382;-0.002;2023-08-24T09:50:47;21.30;99.90
46720;DHT22;32452;51.382;-0.002;2023-08-24T09:53:33;21.90;99.90
46720;DHT22;32452;51.382;-0.002;2023-08-24T09:56:25;22.90;99.90
46720;DHT22;32452;51.382;-0.002;2023-08-24T09:59:17;23.90;99.90
46720;DHT22;32452;51.382;-0.002;2023-08-24T10:02:05;24.20;98.90
46720;DHT22;32452;51.382;-0.002;2023-08-24T10:04:55;24.30;98.10
46720;DHT22;32452;51.382;-0.002;2023-08-24T10:07:41;24.30;97.80
46720;DHT22;32452;51.382;-0.002;2023-08-24T10:10:27;24.40;97.40
46720;DHT22;32452;51.382;-0.002;2023-08-24T10:13:19;24.40;97.10
46720;DHT22;32452;51.382;-0.002;2023-08-24T10:16:08;24.30;96.70
46720;DHT22;32452;51.382;-0.002;2023-08-24T10:18:54;24.20;96.60
46720;DHT22;32452;51.382;-0.002;2023-08-24T10:21:40;24.20;96.50
46720;DHT22;32452;51.382;-0.002;2023-08-24T10:24:28;24.20;96.30
46720;DHT22;32452;51.382;-0.002;2023-08-24T10:27:14;24.10;96.30
46720;DHT22;32452;51.382;-0.002;2023-08-24T10:30:00;24.20;96.40
46720;DHT22;32452;51.382;-0.002;2023-08-24T10:32:46;24.20;96.50
46720;DHT22;32452;51.382;-0.002;2023-08-24T10:35:34;24.40;96.10
46720;DHT22;32452;51.382;-0.002;2023-08-24T10:38:27;24.50;95.90
46720;DHT22;32452;51.382;-0.002;2023-08-24T10:41:13;24.70;95.70
46720;DHT22;32452;51.382;-0.002;2023-08-24T10:44:06;24.80;95.60
46720;DHT22;32452;51.382;-0.002;2023-08-24T10:47:15;25.00;95.40
46720;DHT22;32452;51.382;-0.002;2023-08-24T10:50:01;25.20;95.10
46720;DHT22;32452;51.382;-0.002;2023-08-24T10:52:46;25.30;94.90
46720;DHT22;32452;51.382;-0.002;2023-08-24T10:55:32;25.50;94.60
46720;DHT22;32452;51.382;-0.002;2023-08-24T10:58:21;25.70;94.30
46720;DHT22;32452;51.382;-0.002;2023-08-24T11:01:17;25.70;93.90
46720;DHT22;32452;51.382;-0.002;2023-08-24T11:04:05;25.60;93.40
46720;DHT22;32452;51.382;-0.002;2023-08-24T11:06:59;25.50;93.20
46720;DHT22;32452;51.382;-0.002;2023-08-24T11:09:48;25.40;93.20
46720;DHT22;32452;51.382;-0.002;2023-08-24T11:15:50;25.30;92.90
46720;DHT22;32452;51.382;-0.002;2023-08-24T11:18:44;25.30;93.00
46720;DHT22;32452;51.382;-0.002;2023-08-24T11:21:30;25.50;92.30
46720;DHT22;32452;51.382;-0.002;2023-08-24T11:24:16;25.90;92.50
46720;DHT22;32452;51.382;-0.002;2023-08-24T11:27:03;26.40;91.80
46720;DHT22;32452;51.382;-0.002;2023-08-24T11:30:00;26.90;90.90
46720;DHT22;32452;51.382;-0.002;2023-08-24T11:32:52;27.30;89.40
46720;DHT22;32452;51.382;-0.002;2023-08-24T11:35:44;27.80;87.80
46720;DHT22;32452;51.382;-0.002;2023-08-24T11:38:40;28.40;85.60
46720;DHT22;32452;51.382;-0.002;2023-08-24T11:41:26;28.90;82.20
46720;DHT22;32452;51.382;-0.002;2023-08-24T11:44:12;29.10;78.00
46720;DHT22;32452;51.382;-0.002;2023-08-24T11:47:11;29.20;74.40
46720;DHT22;32452;51.382;-0.002;2023-08-24T11:49:57;29.10;72.50
46720;DHT22;32452;51.382;-0.002;2023-08-24T11:52:45;28.90;70.70
46720;DHT22;32452;51.382;-0.002;2023-08-24T11:55:31;28.50;70.10
46720;DHT22;32452;51.382;-0.002;2023-08-24T11:58:16;28.20;70.20
46720;DHT22;32452;51.382;-0.002;2023-08-24T12:01:02;27.90;70.30
46720;DHT22;32452;51.382;-0.002;2023-08-24T12:03:48;27.50;70.20
46720;DHT22;32452;51.382;-0.002;2023-08-24T12:06:35;27.20;71.00
46720;DHT22;32452;51.382;-0.002;2023-08-24T12:09:21;26.90;71.10
46720;DHT22;32452;51.382;-0.002;2023-08-24T12:12:17;26.70;72.10
46720;DHT22;32452;51.382;-0.002;2023-08-24T12:15:04;26.50;72.20
46720;DHT22;32452;51.382;-0.002;2023-08-24T12:17:50;26.30;73.00
46720;DHT22;32452;51.382;-0.002;2023-08-24T12:20:39;26.10;73.00
46720;DHT22;32452;51.382;-0.002;2023-08-24T12:23:26;26.10;73.70
46720;DHT22;32452;51.382;-0.002;2023-08-24T12:26:18;26.00;73.90
46720;DHT22;32452;51.382;-0.002;2023-08-24T12:29:08;26.10;73.80
46720;DHT22;32452;51.382;-0.002;2023-08-24T12:31:58;26.20;74.60
46720;DHT22;32452;51.382;-0.002;2023-08-24T12:34:44;26.30;73.80
46720;DHT22;32452;51.382;-0.002;2023-08-24T12:37:29;26.40;73.30
46720;DHT22;32452;51.382;-0.002;2023-08-24T12:40:15;26.50;72.80
46720;DHT22;32452;51.382;-0.002;2023-08-24T12:43:01;26.50;72.70
46720;DHT22;32452;51.382;-0.002;2023-08-24T12:45:47;26.50;72.30
46720;DHT22;32452;51.382;-0.002;2023-08-24T12:48:32;26.50;72.00
46720;DHT22;32452;51.382;-0.002;2023-08-24T12:51:18;26.40;71.40
46720;DHT22;32452;51.382;-0.002;2023-08-24T12:54:03;26.30;71.10
46720;DHT22;32452;51.382;-0.002;2023-08-24T12:56:49;26.10;71.20
46720;DHT22;32452;51.382;-0.002;2023-08-24T12:59:35;26.00;71.30
46720;DHT22;32452;51.382;-0.002;2023-08-24T13:02:22;25.90;71.20
46720;DHT22;32452;51.382;-0.002;2023-08-24T13:05:21;25.80;71.40
46720;DHT22;32452;51.382;-0.002;2023-08-24T13:08:07;25.60;71.60
46720;DHT22;32452;51.382;-0.002;2023-08-24T13:10:53;25.50;72.10
46720;DHT22;32452;51.382;-0.002;2023-08-24T13:13:39;25.40;72.60
46720;DHT22;32452;51.382;-0.002;2023-08-24T13:16:24;25.40;73.20
46720;DHT22;32452;51.382;-0.002;2023-08-24T13:19:12;25.30;73.20
46720;DHT22;32452;51.382;-0.002;2023-08-24T13:21:58;25.30;73.50
46720;DHT22;32452;51.382;-0.002;2023-08-24T13:24:44;25.20;73.60
46720;DHT22;32452;51.382;-0.002;2023-08-24T13:27:30;25.10;73.50
46720;DHT22;32452;51.382;-0.002;2023-08-24T13:30:15;25.00;74.40
46720;DHT22;32452;51.382;-0.002;2023-08-24T13:33:01;25.00;75.60
46720;DHT22;32452;51.382;-0.002;2023-08-24T13:35:47;24.90;76.00
46720;DHT22;32452;51.382;-0.002;2023-08-24T13:38:33;24.90;76.60
46720;DHT22;32452;51.382;-0.002;2023-08-24T13:41:19;24.80;76.70
46720;DHT22;32452;51.382;-0.002;2023-08-24T13:44:04;24.80;76.70
46720;DHT22;32452;51.382;-0.002;2023-08-24T13:46:50;24.80;76.80
46720;DHT22;32452;51.382;-0.002;2023-08-24T13:49:36;24.80;77.60
46720;DHT22;32452;51.382;-0.002;2023-08-24T13:52:25;24.80;77.50
46720;DHT22;32452;51.382;-0.002;2023-08-24T13:55:11;24.90;77.10
46720;DHT22;32452;51.382;-0.002;2023-08-24T13:57:58;24.80;77.00
46720;DHT22;32452;51.382;-0.002;2023-08-24T14:00:43;24.80;77.10
46720;DHT22;32452;51.382;-0.002;2023-08-24T14:03:30;24.70;77.20
46720;DHT22;32452;51.382;-0.002;2023-08-24T14:06:15;24.60;77.30
46720;DHT22;32452;51.382;-0.002;2023-08-24T14:09:01;24.50;77.70
46720;DHT22;32452;51.382;-0.002;2023-08-24T14:11:48;24.40;78.60
46720;DHT22;32452;51.382;-0.002;2023-08-24T14:14:33;24.30;80.00
46720;DHT22;32452;51.382;-0.002;2023-08-24T14:17:19;24.20;81.60
46720;DHT22;32452;51.382;-0.002;2023-08-24T14:20:05;24.00;82.20
46720;DHT22;32452;51.382;-0.002;2023-08-24T14:22:50;23.90;83.00
46720;DHT22;32452;51.382;-0.002;2023-08-24T14:25:36;23.80;84.50
46720;DHT22;32452;51.382;-0.002;2023-08-24T14:28:22;23.80;86.50
46720;DHT22;32452;51.382;-0.002;2023-08-24T14:31:08;23.70;88.30
46720;DHT22;32452;51.382;-0.002;2023-08-24T14:33:54;23.60;89.50
46720;DHT22;32452;51.382;-0.002;2023-08-24T14:36:40;23.50;90.20
46720;DHT22;32452;51.382;-0.002;2023-08-24T14:39:25;23.50;90.60
46720;DHT22;32452;51.382;-0.002;2023-08-24T14:42:11;23.50;90.80
46720;DHT22;32452;51.382;-0.002;2023-08-24T14:44:56;23.40;90.60
46720;DHT22;32452;51.382;-0.002;2023-08-24T14:47:42;23.30;90.50
46720;DHT22;32452;51.382;-0.002;2023-08-24T14:50:27;23.20;90.60
46720;DHT22;32452;51.382;-0.002;2023-08-24T14:53:13;23.10;90.90
46720;DHT22;32452;51.382;-0.002;2023-08-24T14:55:59;23.10;91.20
46720;DHT22;32452;51.382;-0.002;2023-08-24T14:58:44;23.00;91.60
46720;DHT22;32452;51.382;-0.002;2023-08-24T15:01:34;22.90;91.90
46720;DHT22;32452;51.382;-0.002;2023-08-24T15:04:20;22.90;92.50
46720;DHT22;32452;51.382;-0.002;2023-08-24T15:07:06;22.90;92.90
46720;DHT22;32452;51.382;-0.002;2023-08-24T15:09:52;22.90;93.30
46720;DHT22;32452;51.382;-0.002;2023-08-24T15:12:37;22.90;93.60
46720;DHT22;32452;51.382;-0.002;2023-08-24T15:15:23;22.90;94.00
46720;DHT22;32452;51.382;-0.002;2023-08-24T15:18:10;22.90;94.20
46720;DHT22;32452;51.382;-0.002;2023-08-24T15:20:55;23.00;94.40
46720;DHT22;32452;51.382;-0.002;2023-08-24T15:23:42;23.00;94.70
46720;DHT22;32452;51.382;-0.002;2023-08-24T15:26:27;23.00;94.90
46720;DHT22;32452;51.382;-0.002;2023-08-24T15:29:14;23.00;95.00
46720;DHT22;32452;51.382;-0.002;2023-08-24T15:32:01;23.00;95.20
46720;DHT22;32452;51.382;-0.002;2023-08-24T15:34:47;22.90;95.40
46720;DHT22;32452;51.382;-0.002;2023-08-24T15:37:33;23.00;95.70
46720;DHT22;32452;51.382;-0.002;2023-08-24T15:40:19;22.90;95.80
46720;DHT22;32452;51.382;-0.002;2023-08-24T15:43:05;22.90;95.80
46720;DHT22;32452;51.382;-0.002;2023-08-24T15:45:51;22.90;95.70
46720;DHT22;32452;51.382;-0.002;2023-08-24T15:48:37;22.90;95.80
46720;DHT22;32452;51.382;-0.002;2023-08-24T15:51:24;22.90;95.90
46720;DHT22;32452;51.382;-0.002;2023-08-24T15:54:12;22.90;95.90
46720;DHT22;32452;51.382;-0.002;2023-08-24T15:56:58;22.90;95.80
46720;DHT22;32452;51.382;-0.002;2023-08-24T15:59:44;22.90;95.70
46720;DHT22;32452;51.382;-0.002;2023-08-24T16:02:29;22.90;95.50
46720;DHT22;32452;51.382;-0.002;2023-08-24T16:05:16;22.90;95.50
46720;DHT22;32452;51.382;-0.002;2023-08-24T16:08:02;22.90;95.60
46720;DHT22;32452;51.382;-0.002;2023-08-24T16:10:49;22.90;95.70
46720;DHT22;32452;51.382;-0.002;2023-08-24T16:13:35;22.80;95.70
46720;DHT22;32452;51.382;-0.002;2023-08-24T16:16:20;22.70;95.70
46720;DHT22;32452;51.382;-0.002;2023-08-24T16:19:06;22.70;95.80
46720;DHT22;32452;51.382;-0.002;2023-08-24T16:21:53;22.60;95.70
46720;DHT22;32452;51.382;-0.002;2023-08-24T16:24:39;22.50;95.90
46720;DHT22;32452;51.382;-0.002;2023-08-24T16:27:25;22.40;96.10
46720;DHT22;32452;51.382;-0.002;2023-08-24T16:30:10;22.30;96.40
46720;DHT22;32452;51.382;-0.002;2023-08-24T16:32:56;22.30;96.60
46720;DHT22;32452;51.382;-0.002;2023-08-24T16:35:46;22.20;96.70
46720;DHT22;32452;51.382;-0.002;2023-08-24T16:38:32;22.10;96.70
46720;DHT22;32452;51.382;-0.002;2023-08-24T16:41:17;22.10;96.80
46720;DHT22;32452;51.382;-0.002;2023-08-24T16:44:03;22.00;97.00
46720;DHT22;32452;51.382;-0.002;2023-08-24T16:46:48;22.00;97.30
46720;DHT22;32452;51.382;-0.002;2023-08-24T16:49:35;22.00;97.30
46720;DHT22;32452;51.382;-0.002;2023-08-24T16:52:21;22.00;97.40
46720;DHT22;32452;51.382;-0.002;2023-08-24T16:55:06;22.00;97.50
46720;DHT22;32452;51.382;-0.002;2023-08-24T16:57:52;22.00;98.00
46720;DHT22;32452;51.382;-0.002;2023-08-24T17:00:38;22.10;97.90
46720;DHT22;32452;51.382;-0.002;2023-08-24T17:03:24;22.10;98.00
46720;DHT22;32452;51.382;-0.002;2023-08-24T17:06:10;22.10;98.10
46720;DHT22;32452;51.382;-0.002;2023-08-24T17:08:55;22.20;98.00
46720;DHT22;32452;51.382;-0.002;2023-08-24T17:11:41;22.20;97.90
46720;DHT22;32452;51.382;-0.002;2023-08-24T17:14:26;22.30;97.90
46720;DHT22;32452;51.382;-0.002;2023-08-24T17:17:12;22.30;97.70
46720;DHT22;32452;51.382;-0.002;2023-08-24T17:19:57;22.30;97.70
46720;DHT22;32452;51.382;-0.002;2023-08-24T17:22:43;22.30;97.60
46720;DHT22;32452;51.382;-0.002;2023-08-24T17:25:29;22.30;97.60